Time;durP1;ratioP1;P1;durP2;ratioP2;P2;SDS_P1;SDS_P2;PMS_P1;PMS_P2;Temp;Humidity;BMP_temperature;BMP_pressure;BME280_temperature;BME280_humidity;BME280_pressure;Samples;Min_cycle;Max_cycle;Signal;HPM_P1;HPM_P2
2022/01/20 00:03:30;;;;;;;;;26.25;23.25;;;;;8.22;81.64;102133.47;5056571;28;45677;-78
2022/01/20 00:27:38;;;;;;;;;29.00;20.75;;;;;8.22;81.10;102136.06;5014592;28;45760;-81
2022/01/20 00:30:37;;;;;;;;;29.75;21.25;;;;;8.24;80.95;102144.72;5015683;28;47581;-81
2022/01/20 00:33:01;;;;;;;;;22.00;20.00;;;;;8.16;80.79;102116.28;5013864;28;45666;-77
2022/01/20 00:35:31;;;;;;;;;22.25;19.50;;;;;8.06;80.89;102088.81;5013166;28;45844;-79
2022/01/20 00:37:57;;;;;;;;;25.00;20.75;;;;;8.21;80.50;102122.16;5011921;28;46397;-78
2022/01/20 00:40:23;;;;;;;;;29.25;21.75;;;;;8.05;80.66;102104.50;5012398;28;46488;-79
2022/01/20 00:42:50;;;;;;;;;25.00;22.50;;;;;8.20;80.62;102120.50;5011718;28;45828;-79
2022/01/20 00:45:15;;;;;;;;;27.00;22.00;;;;;8.18;80.51;102117.06;5031304;28;45734;-79
2022/01/20 00:47:41;;;;;;;;;22.00;20.00;;;;;8.17;80.38;102112.75;5078093;28;46254;-79
2022/01/20 00:50:10;;;;;;;;;26.50;20.25;;;;;8.13;80.50;102112.94;5081137;28;45632;-78
2022/01/20 00:52:35;;;;;;;;;25.75;21.00;;;;;8.13;80.72;102121.63;5078003;28;45472;-77
2022/01/20 00:55:01;;;;;;;;;22.25;19.25;;;;;7.98;80.21;102117.81;5078172;28;45716;-77
2022/01/20 00:57:27;;;;;;;;;26.50;20.75;;;;;8.11;80.41;102119.94;5077868;28;46489;-78
2022/01/20 00:59:52;;;;;;;;;20.00;18.00;;;;;8.09;80.36;102127.88;5077845;28;46089;-78
2022/01/20 01:02:18;;;;;;;;;24.00;20.00;;;;;8.07;80.37;102127.06;5077252;28;46132;-78
2022/01/20 01:04:44;;;;;;;;;18.25;18.25;;;;;7.99;80.26;102108.19;5077253;28;45498;-78
2022/01/20 01:09:38;;;;;;;;;23.50;15.25;;;;;8.03;80.10;102125.47;5076987;28;45894;-78
2022/01/20 01:12:06;;;;;;;;;19.25;16.00;;;;;7.95;80.07;102130.09;5077004;28;45675;-78
2022/01/20 01:14:33;;;;;;;;;24.75;19.00;;;;;7.81;79.92;102109.72;5077302;28;45685;-78
2022/01/20 01:24:40;;;;;;;;;21.25;19.25;;;;;7.89;79.97;102144.22;5077010;28;45666;-78
2022/01/20 01:27:08;;;;;;;;;19.00;18.00;;;;;7.89;79.93;102156.41;5076630;28;47226;-78
2022/01/20 01:32:23;;;;;;;;;17.50;16.75;;;;;7.87;79.82;102166.06;5076882;28;45478;-78
2022/01/20 01:34:52;;;;;;;;;25.00;18.50;;;;;7.86;79.63;102167.81;5077106;28;45856;-78
2022/01/20 01:40:11;;;;;;;;;18.75;16.25;;;;;7.77;80.05;102173.38;4975024;28;46198;-78
2022/01/20 01:42:49;;;;;;;;;24.75;20.25;;;;;7.79;79.79;102171.53;4974819;28;45911;-79
2022/01/20 01:45:16;;;;;;;;;19.00;17.75;;;;;7.78;79.65;102179.41;4975146;28;45646;-77
2022/01/20 01:47:42;;;;;;;;;21.00;14.00;;;;;7.73;79.90;102168.28;4974625;28;46429;-78
2022/01/20 01:50:07;;;;;;;;;17.00;15.00;;;;;7.73;79.73;102176.97;4974436;28;47188;-79
2022/01/20 01:52:33;;;;;;;;;17.75;15.25;;;;;7.69;79.59;102177.97;4974593;28;45779;-78
2022/01/20 01:54:59;;;;;;;;;18.00;16.00;;;;;7.70;79.66;102192.72;4974525;28;45754;-79
2022/01/20 01:57:26;;;;;;;;;15.00;13.75;;;;;7.68;79.61;102212.78;4974450;28;45723;-78
2022/01/20 01:59:52;;;;;;;;;16.50;14.00;;;;;7.65;79.60;102201.59;4974653;28;45939;-77
2022/01/20 02:02:18;;;;;;;;;19.00;14.00;;;;;7.64;79.69;102211.19;4973517;28;45550;-78
2022/01/20 02:04:44;;;;;;;;;18.50;17.00;;;;;7.61;79.53;102215.66;4974827;28;45809;-78
2022/01/20 02:21:04;;;;;;;;;13.50;13.00;;;;;7.53;79.44;102234.16;4993887;28;46076;-78
2022/01/20 02:23:29;;;;;;;;;13.50;13.50;;;;;7.44;79.26;102211.84;4993507;28;45899;-78
2022/01/20 02:25:54;;;;;;;;;17.00;14.00;;;;;7.48;79.34;102221.28;4994121;28;45791;-77
2022/01/20 02:28:20;;;;;;;;;16.25;13.75;;;;;7.47;79.11;102221.31;4993997;28;46269;-78
2022/01/20 02:30:45;;;;;;;;;22.75;19.50;;;;;7.44;79.17;102226.63;4993889;28;46205;-79
2022/01/20 02:33:16;;;;;;;;;15.00;13.00;;;;;7.40;79.48;102231.06;4994195;28;45602;-78
2022/01/20 02:35:47;;;;;;;;;10.50;9.75;;;;;7.40;79.15;102233.69;4993994;28;45821;-79
2022/01/20 02:38:25;;;;;;;;;12.50;11.00;;;;;7.29;79.19;102216.69;4994154;28;46531;-78
2022/01/20 02:46:20;;;;;;;;;12.00;9.25;;;;;7.29;78.98;102222.75;4994189;28;45795;-79
2022/01/20 02:48:45;;;;;;;;;17.00;14.25;;;;;7.30;79.31;102227.06;5023625;28;46812;-79
2022/01/20 02:51:12;;;;;;;;;18.50;15.75;;;;;7.23;79.05;102209.06;5076082;28;46267;-80
2022/01/20 02:53:40;;;;;;;;;14.00;11.00;;;;;7.26;79.10;102207.22;5076252;28;45932;-77
2022/01/20 02:56:07;;;;;;;;;13.25;10.00;;;;;7.18;79.02;102201.38;5075758;28;45609;-79
2022/01/20 02:58:33;;;;;;;;;13.00;10.00;;;;;7.22;78.97;102208.22;5076229;28;45689;-78
2022/01/20 03:00:59;;;;;;;;;13.75;12.25;;;;;7.05;78.79;102184.44;5076216;28;45853;-77
2022/01/20 03:03:25;;;;;;;;;13.75;9.75;;;;;7.15;78.97;102206.69;5075295;28;45607;-77
2022/01/20 03:05:51;;;;;;;;;11.75;10.00;;;;;7.16;78.79;102213.63;5075777;28;45622;-80
2022/01/20 03:08:16;;;;;;;;;10.00;9.25;;;;;6.89;78.67;102178.00;5074438;28;47332;-79
2022/01/20 03:10:42;;;;;;;;;9.75;9.00;;;;;7.12;78.69;102217.22;5075678;28;46298;-79
2022/01/20 03:13:07;;;;;;;;;9.50;9.00;;;;;7.10;78.66;102225.09;5057502;28;45617;-78
2022/01/20 03:15:35;;;;;;;;;8.50;7.25;;;;;7.07;78.52;102216.50;5075567;28;45789;-78
2022/01/20 03:18:01;;;;;;;;;10.00;9.75;;;;;7.05;78.35;102218.31;5075418;28;46407;-78
2022/01/20 03:20:27;;;;;;;;;11.25;9.25;;;;;6.93;78.28;102213.47;5075055;28;46698;-80
2022/01/20 03:22:53;;;;;;;;;12.25;9.25;;;;;6.98;78.32;102220.22;5075169;28;45596;-78
2022/01/20 03:25:18;;;;;;;;;11.75;8.00;;;;;7.04;78.29;102237.44;5075424;28;45673;-80
2022/01/20 03:27:43;;;;;;;;;10.25;8.50;;;;;7.03;78.22;102231.38;5073858;28;47953;-78
2022/01/20 03:30:10;;;;;;;;;10.00;9.00;;;;;6.99;78.16;102240.19;5075256;28;46068;-79
2022/01/20 03:32:37;;;;;;;;;8.50;8.50;;;;;7.01;78.32;102251.44;5056880;28;45776;-79
2022/01/20 03:35:06;;;;;;;;;9.50;9.00;;;;;7.00;78.06;102249.72;5074872;28;45473;-80
2022/01/20 03:37:32;;;;;;;;;10.75;8.50;;;;;6.93;78.13;102239.50;5074993;28;45574;-81
2022/01/20 03:39:58;;;;;;;;;15.25;11.50;;;;;6.92;78.07;102238.66;5074876;28;46080;-78
2022/01/20 03:42:26;;;;;;;;;11.00;10.25;;;;;6.92;78.18;102250.81;5074629;28;45634;-80
2022/01/20 03:48:13;;;;;;;;;8.25;6.00;;;;;6.83;77.93;102236.31;5075356;28;45633;-80
2022/01/20 03:53:23;;;;;;;;;11.25;10.00;;;;;6.74;78.01;102247.88;5075935;28;45549;-80
2022/01/20 03:55:49;;;;;;;;;11.00;11.00;;;;;6.68;78.12;102235.03;5076394;28;45598;-78
2022/01/20 03:58:14;;;;;;;;;9.00;9.00;;;;;6.67;78.07;102237.66;5076822;28;45561;-79
2022/01/20 04:04:02;;;;;;;;;12.25;9.00;;;;;6.52;78.33;102236.38;5070012;28;45862;-80
2022/01/20 04:06:28;;;;;;;;;12.25;11.50;;;;;6.67;78.16;102261.97;5059926;28;45728;-81
2022/01/20 04:08:54;;;;;;;;;15.25;9.00;;;;;6.65;78.23;102263.75;5056038;28;47473;-80
2022/01/20 04:11:23;;;;;;;;;13.00;10.00;;;;;6.60;77.99;102260.41;5066716;28;45780;-80
2022/01/20 04:13:50;;;;;;;;;10.00;10.00;;;;;6.54;77.97;102259.72;5064237;28;45856;-80
2022/01/20 04:19:37;;;;;;;;;8.50;8.25;;;;;6.57;78.12;102270.06;5054592;28;45975;-79
2022/01/20 04:22:02;;;;;;;;;10.00;9.00;;;;;6.58;78.00;102284.81;5056907;28;45943;-80
2022/01/20 04:24:28;;;;;;;;;11.00;9.00;;;;;6.55;77.62;102283.13;5056814;28;45523;-79
2022/01/20 04:26:54;;;;;;;;;10.00;9.00;;;;;6.55;77.94;102277.91;5057244;28;45599;-81
2022/01/20 04:29:19;;;;;;;;;10.75;5.25;;;;;6.54;78.07;102281.41;5058666;28;47267;-81
2022/01/20 04:35:07;;;;;;;;;10.50;5.00;;;;;6.46;77.76;102272.13;5073345;28;45158;-78
2022/01/20 04:37:33;;;;;;;;;8.75;5.25;;;;;6.48;77.86;102275.53;5076860;28;44930;-78
2022/01/20 04:40:02;;;;;;;;;6.00;6.00;;;;;6.49;77.52;102272.88;5080063;28;46635;-78
2022/01/20 04:42:29;;;;;;;;;8.00;5.00;;;;;6.50;77.80;102278.94;5080265;28;45431;-79
2022/01/20 04:45:06;;;;;;;;;9.00;8.50;;;;;6.50;77.71;102281.53;5080417;28;45206;-79
2022/01/20 04:59:05;;;;;;;;;6.00;5.50;;;;;6.44;77.51;102308.59;5066961;28;45284;-78
2022/01/20 05:01:31;;;;;;;;;9.00;7.50;;;;;6.44;77.19;102297.31;5069464;28;45547;-78
2022/01/20 05:03:57;;;;;;;;;6.00;4.75;;;;;6.39;77.30;102280.97;5070934;28;45804;-78
2022/01/20 05:06:22;;;;;;;;;8.00;5.00;;;;;6.37;77.26;102288.81;5077709;28;45563;-79
2022/01/20 05:08:49;;;;;;;;;6.00;5.25;;;;;6.30;77.16;102276.88;5058042;28;45962;-79
2022/01/20 05:11:16;;;;;;;;;8.00;5.50;;;;;6.33;77.04;102282.00;5074146;28;47252;-79
2022/01/20 05:13:41;;;;;;;;;10.00;6.00;;;;;6.36;77.04;102281.94;5073983;28;46098;-81
2022/01/20 05:16:10;;;;;;;;;8.00;5.00;;;;;6.21;76.97;102270.16;5056469;28;45591;-79
2022/01/20 05:18:36;;;;;;;;;9.75;6.00;;;;;6.32;77.01;102281.13;5074718;28;45651;-80
2022/01/20 05:21:02;;;;;;;;;4.00;2.50;;;;;6.36;76.99;102287.13;5074632;28;45671;-77
2022/01/20 05:23:28;;;;;;;;;6.00;5.00;;;;;6.11;77.03;102244.41;5073982;28;46049;-79
2022/01/20 05:25:53;;;;;;;;;5.00;4.00;;;;;6.29;76.99;102273.44;5074187;28;45747;-78
2022/01/20 05:28:18;;;;;;;;;6.00;5.50;;;;;6.22;76.73;102264.06;5074176;28;45569;-80
2022/01/20 05:30:44;;;;;;;;;8.25;6.50;;;;;6.21;76.90;102269.31;5076260;28;46362;-78
2022/01/20 05:33:10;;;;;;;;;5.00;4.00;;;;;6.33;76.80;102290.66;5076977;28;46169;-79
2022/01/20 05:35:35;;;;;;;;;4.75;4.50;;;;;6.31;76.50;102299.41;5076939;28;45837;-79
2022/01/20 05:38:01;;;;;;;;;4.00;4.00;;;;;6.25;76.51;102289.16;5077730;28;45611;-79
2022/01/20 05:40:27;;;;;;;;;2.00;1.00;;;;;6.29;76.67;102303.81;5076795;28;46509;-79
2022/01/20 05:42:53;;;;;;;;;4.00;4.00;;;;;6.24;76.52;102306.53;5076633;28;47249;-80
2022/01/20 05:45:19;;;;;;;;;4.50;2.00;;;;;6.20;76.47;102304.06;5076900;28;45620;-79
2022/01/20 05:51:06;;;;;;;;;6.00;4.00;;;;;6.21;76.13;102310.94;5076683;28;46013;-79
2022/01/20 05:53:32;;;;;;;;;5.00;4.00;;;;;6.22;76.06;102316.09;5076903;28;46282;-78
2022/01/20 05:55:58;;;;;;;;;7.00;3.50;;;;;6.20;75.93;102311.84;5076706;28;45825;-79
2022/01/20 05:58:24;;;;;;;;;4.25;3.50;;;;;6.15;75.86;102313.72;5076994;28;45915;-78
2022/01/20 06:05:19;;;;;;;;;4.00;2.00;;;;;6.21;75.94;102326.56;5074053;28;45683;-78
2022/01/20 06:07:45;;;;;;;;;3.00;2.00;;;;;6.19;75.58;102328.34;5076201;28;45890;-79
2022/01/20 06:10:13;;;;;;;;;5.00;4.00;;;;;6.19;76.02;102330.97;5076490;28;45577;-79
2022/01/20 06:12:39;;;;;;;;;5.50;3.00;;;;;6.00;75.86;102301.94;5076610;28;45850;-78
2022/01/20 06:15:13;;;;;;;;;5.00;3.50;;;;;6.09;75.69;102313.88;5076292;28;45708;-79
2022/01/20 06:21:00;;;;;;;;;5.00;4.00;;;;;6.15;75.57;102318.94;5076764;28;45690;-78
2022/01/20 06:23:26;;;;;;;;;4.50;3.50;;;;;6.19;75.26;102329.22;5057793;28;47765;-80
2022/01/20 06:25:52;;;;;;;;;4.50;3.00;;;;;6.19;75.44;102334.41;5058308;28;46330;-79
2022/01/20 06:28:19;;;;;;;;;4.00;2.00;;;;;6.18;75.43;102343.13;5076271;28;45492;-79
2022/01/20 06:30:45;;;;;;;;;6.00;4.50;;;;;6.21;75.64;102339.56;5076400;28;45561;-79
2022/01/20 06:36:32;;;;;;;;;5.75;4.75;;;;;6.06;75.42;102322.59;5075889;28;46095;-80
2022/01/20 06:38:58;;;;;;;;;4.25;4.00;;;;;6.15;75.29;102342.34;5076370;28;45686;-80
2022/01/20 06:41:26;;;;;;;;;4.50;4.25;;;;;5.83;75.14;102293.69;5075622;28;45783;-79
2022/01/20 06:43:51;;;;;;;;;4.75;4.00;;;;;6.06;75.18;102334.75;5076012;28;45569;-80
2022/01/20 06:46:17;;;;;;;;;4.00;3.50;;;;;6.15;75.25;102351.00;5076033;28;45819;-79
2022/01/20 06:48:42;;;;;;;;;4.50;2.50;;;;;6.13;75.52;102354.53;5076230;28;45687;-80
2022/01/20 06:51:08;;;;;;;;;4.00;4.00;;;;;6.15;75.44;102363.16;5076349;28;45679;-80
2022/01/20 06:53:33;;;;;;;;;2.00;0.00;;;;;6.04;75.24;102344.34;5076328;28;45698;-81
2022/01/20 06:55:59;;;;;;;;;1.50;1.25;;;;;6.14;75.55;102364.03;5075405;28;46123;-78
2022/01/20 06:58:24;;;;;;;;;5.25;3.00;;;;;6.12;75.66;102366.69;5075548;28;45571;-80
2022/01/20 07:00:50;;;;;;;;;4.00;2.00;;;;;5.99;75.42;102351.41;5075816;28;45581;-81
2022/01/20 07:06:37;;;;;;;;;5.00;4.50;;;;;6.00;74.99;102376.50;5075231;28;46302;-80
2022/01/20 07:09:04;;;;;;;;;4.50;4.50;;;;;6.06;75.59;102391.97;5075944;28;45656;-79
2022/01/20 07:11:33;;;;;;;;;2.00;1.75;;;;;6.08;75.63;102398.00;5075792;28;45669;-80
2022/01/20 07:13:58;;;;;;;;;4.50;2.50;;;;;6.06;75.24;102405.00;5075463;28;46360;-80
2022/01/20 07:16:24;;;;;;;;;4.25;2.00;;;;;6.03;75.02;102421.53;5074894;28;46332;-79
2022/01/20 07:18:51;;;;;;;;;4.00;4.00;;;;;6.04;75.06;102419.81;5075544;28;45826;-79
2022/01/20 07:21:18;;;;;;;;;6.00;2.00;;;;;5.95;75.09;102405.25;5074674;28;45902;-80
2022/01/20 07:23:43;;;;;;;;;5.00;4.25;;;;;5.94;74.98;102423.50;5075125;28;46556;-80
2022/01/20 07:26:14;;;;;;;;;2.50;2.00;;;;;6.00;75.17;102434.59;5075550;28;47431;-80
2022/01/20 07:28:39;;;;;;;;;4.00;2.50;;;;;5.98;75.04;102440.75;5057686;28;45650;-81
2022/01/20 07:31:07;;;;;;;;;4.00;3.00;;;;;5.92;75.01;102430.47;5075938;28;45589;-81
2022/01/20 07:36:55;;;;;;;;;2.50;2.50;;;;;5.95;75.13;102438.19;5075801;28;46187;-79
2022/01/20 07:39:20;;;;;;;;;7.50;5.00;;;;;5.92;75.08;102420.94;5075679;28;45695;-82
2022/01/20 07:41:45;;;;;;;;;5.50;4.00;;;;;5.95;75.26;102448.59;5059101;28;45559;-81
2022/01/20 07:44:11;;;;;;;;;4.25;3.00;;;;;5.95;75.16;102444.25;5076108;28;46310;-78
2022/01/20 07:46:37;;;;;;;;;4.25;2.50;;;;;5.86;75.23;102431.44;5078917;28;46146;-81
2022/01/20 07:52:24;;;;;;;;;4.25;2.00;;;;;6.02;75.19;102437.19;5089468;28;45466;-80
2022/01/20 07:54:50;;;;;;;;;4.00;2.00;;;;;6.01;75.05;102428.50;5090562;28;46702;-79
2022/01/20 07:57:16;;;;;;;;;4.00;3.50;;;;;6.00;75.26;102432.00;5074356;28;46150;-78
2022/01/20 07:59:42;;;;;;;;;8.75;3.00;;;;;6.07;75.64;102445.72;5073711;28;45708;-80
2022/01/20 08:02:09;;;;;;;;;8.50;4.75;;;;;6.11;75.16;102432.59;5076014;28;45530;-81
2022/01/20 08:04:35;;;;;;;;;4.25;3.00;;;;;6.14;75.19;102426.50;5074943;28;45670;-78
2022/01/20 08:07:00;;;;;;;;;5.50;4.00;;;;;6.13;75.09;102429.97;5056391;28;45557;-81
2022/01/20 08:09:26;;;;;;;;;8.75;5.75;;;;;6.16;74.66;102440.31;5075420;28;45762;-82
2022/01/20 08:11:51;;;;;;;;;7.25;4.50;;;;;6.21;75.18;102433.25;5056806;28;45697;-81
2022/01/20 08:14:16;;;;;;;;;9.50;6.00;;;;;6.28;74.94;102438.28;5074970;28;46627;-80
2022/01/20 08:16:42;;;;;;;;;5.50;3.50;;;;;6.23;75.09;102427.13;5074717;28;45609;-80
2022/01/20 08:22:33;;;;;;;;;6.00;5.25;;;;;6.25;75.05;102437.50;5074689;28;45585;-81
2022/01/20 08:24:59;;;;;;;;;5.00;5.00;;;;;6.35;75.18;102452.00;5074676;28;46358;-81
2022/01/20 08:27:25;;;;;;;;;5.00;4.00;;;;;6.39;75.01;102438.00;5074306;28;46135;-81
2022/01/20 08:29:50;;;;;;;;;8.00;5.00;;;;;6.41;75.10;102443.19;5074867;28;45653;-81
2022/01/20 08:32:16;;;;;;;;;5.25;4.25;;;;;6.36;75.00;102432.91;5074780;28;45699;-80
2022/01/20 08:34:41;;;;;;;;;5.00;4.75;;;;;6.48;75.01;102452.56;5074689;28;46421;-79
2022/01/20 08:37:07;;;;;;;;;5.00;5.00;;;;;6.49;74.61;102446.44;5074666;28;45601;-80
2022/01/20 08:42:02;;;;;;;;;7.25;5.75;;;;;6.51;74.64;102463.75;5074312;28;45661;-82
2022/01/20 08:44:28;;;;;;;;;6.00;5.75;;;;;6.41;74.59;102446.66;5074074;28;45591;-81
2022/01/20 08:46:57;;;;;;;;;6.00;6.00;;;;;6.54;74.49;102461.06;5074382;28;46262;-80
2022/01/20 08:52:45;;;;;;;;;7.00;5.25;;;;;6.48;74.67;102458.59;5074191;28;45676;-80
2022/01/20 08:55:10;;;;;;;;;8.25;5.50;;;;;6.53;74.51;102471.53;5074139;28;46379;-81
2022/01/20 08:57:36;;;;;;;;;5.50;5.00;;;;;6.53;74.40;102464.56;5074666;28;46039;-77
2022/01/20 09:00:04;;;;;;;;;8.00;6.00;;;;;6.40;74.87;102433.66;5075466;28;45573;-78
2022/01/20 09:02:30;;;;;;;;;4.25;4.00;;;;;6.52;74.17;102452.47;5074947;28;45994;-82
2022/01/20 09:04:55;;;;;;;;;8.00;6.00;;;;;6.54;74.04;102436.78;5075542;28;46737;-76
2022/01/20 09:07:21;;;;;;;;;9.00;5.00;;;;;6.55;74.39;102460.19;5055725;28;48399;-77
2022/01/20 09:09:48;;;;;;;;;4.25;4.25;;;;;6.65;74.31;102472.06;5057459;28;46110;-78
2022/01/20 09:15:27;;;;;;;;;8.25;5.00;;;;;6.62;74.46;102468.69;5057369;28;45609;-77
2022/01/20 09:15:28;;;;;;;;;6.75;5.50;;;;;6.64;74.13;102456.50;5056984;28;46357;-84
2022/01/20 09:17:56;;;;;;;;;10.00;6.00;;;;;6.71;74.21;102465.88;5055495;28;47953;-80
2022/01/20 09:20:22;;;;;;;;;6.00;6.00;;;;;6.54;73.96;102435.03;5056969;28;45832;-80
2022/01/20 09:22:48;;;;;;;;;9.00;6.00;;;;;6.75;74.27;102475.31;5056987;28;45519;-81
2022/01/20 09:25:15;;;;;;;;;11.00;6.50;;;;;6.78;74.22;102490.00;5057085;28;45613;-81
2022/01/20 09:27:41;;;;;;;;;8.75;8.00;;;;;6.70;74.22;102475.41;5057101;28;47130;-80
2022/01/20 09:30:08;;;;;;;;;8.75;6.50;;;;;6.83;73.98;102490.75;5057895;28;45502;-82
2022/01/20 09:32:37;;;;;;;;;9.00;7.75;;;;;6.86;74.18;102509.75;5058415;28;45573;-79
2022/01/20 09:35:03;;;;;;;;;10.50;6.25;;;;;6.88;74.09;102496.69;5057953;28;45624;-80
2022/01/20 09:37:28;;;;;;;;;13.75;8.00;;;;;6.90;74.07;102514.00;5057067;28;46184;-78
2022/01/20 09:39:55;;;;;;;;;7.25;5.75;;;;;6.94;73.86;102522.59;5057027;28;45574;-83
2022/01/20 09:42:21;;;;;;;;;6.00;6.00;;;;;6.96;73.97;102516.47;5056960;28;45632;-83
2022/01/20 09:44:47;;;;;;;;;7.50;7.50;;;;;7.00;74.09;102518.09;5056625;28;46451;-80
2022/01/20 09:47:15;;;;;;;;;12.00;8.75;;;;;7.01;73.85;102498.09;5056496;28;45567;-81
2022/01/20 09:53:03;;;;;;;;;9.25;9.25;;;;;7.12;73.58;102499.53;5055721;28;45641;-77
2022/01/20 09:55:30;;;;;;;;;9.25;9.00;;;;;7.16;73.76;102510.72;5055573;28;47714;-77
2022/01/20 09:57:55;;;;;;;;;12.75;9.25;;;;;7.14;73.57;102500.34;5055896;28;45522;-82
2022/01/20 10:00:21;;;;;;;;;13.50;11.00;;;;;7.14;73.63;102504.69;5055524;28;45743;-79
2022/01/20 10:02:56;;;;;;;;;8.50;8.50;;;;;7.13;73.79;102511.66;5055717;28;45719;-77
2022/01/20 10:05:30;;;;;;;;;13.00;10.00;;;;;7.06;73.57;102491.03;5055695;28;46536;-77
2022/01/20 10:08:13;;;;;;;;;9.75;8.50;;;;;7.13;73.66;102509.03;5057630;28;46489;-77
2022/01/20 10:10:47;;;;;;;;;11.00;8.25;;;;;7.16;73.65;102508.13;5075650;28;46034;-79
2022/01/20 10:13:15;;;;;;;;;9.00;9.00;;;;;7.20;73.47;102516.72;5076308;28;45693;-77
2022/01/20 10:15:41;;;;;;;;;9.25;7.00;;;;;7.21;73.48;102523.63;5075438;28;46701;-79
2022/01/20 10:18:30;;;;;;;;;11.25;9.25;;;;;7.23;73.38;102519.25;5074923;28;46153;-77
2022/01/20 10:20:59;;;;;;;;;13.00;9.75;;;;;7.11;73.52;102502.19;4974073;28;45869;-76
2022/01/20 10:23:40;;;;;;;;;10.75;9.50;;;;;7.29;73.53;102532.94;4973967;28;45945;-78
2022/01/20 10:26:11;;;;;;;;;10.25;8.00;;;;;7.33;73.30;102546.78;4973605;28;47565;-77
2022/01/20 10:29:00;;;;;;;;;9.00;7.50;;;;;7.36;73.19;102551.91;4973019;28;47329;-76
2022/01/20 10:31:31;;;;;;;;;6.00;2.00;;;;;7.39;73.35;102551.84;4973303;28;45903;-78
2022/01/20 10:33:56;;;;;;;;;9.25;7.50;;;;;7.41;73.18;102553.50;4973690;28;45656;-78
2022/01/20 10:36:22;;;;;;;;;10.50;10.00;;;;;7.32;73.25;102532.03;4973551;28;46346;-79
2022/01/20 10:38:50;;;;;;;;;13.25;10.00;;;;;7.47;73.21;102558.56;4973817;28;46458;-80
2022/01/20 10:41:38;;;;;;;;;10.25;9.50;;;;;7.52;72.99;102561.03;4973685;28;45829;-78
2022/01/20 10:44:05;;;;;;;;;12.50;9.75;;;;;7.52;73.09;102554.06;4973447;28;45731;-76
2022/01/20 10:46:44;;;;;;;;;10.25;9.75;;;;;7.57;73.13;102562.63;4973412;28;46513;-77
2022/01/20 10:49:10;;;;;;;;;10.00;9.00;;;;;7.57;72.85;102560.00;4973622;28;46236;-76
2022/01/20 10:51:36;;;;;;;;;7.00;7.00;;;;;7.57;72.85;102554.78;4973746;28;45555;-76
2022/01/20 10:54:08;;;;;;;;;14.00;11.25;;;;;7.67;73.00;102559.75;4973962;28;45688;-78
2022/01/20 10:56:48;;;;;;;;;13.50;10.00;;;;;7.64;73.03;102549.41;4973587;28;47370;-80
2022/01/20 10:59:14;;;;;;;;;13.00;11.00;;;;;7.72;72.92;102563.94;5076067;28;46069;-79
2022/01/20 11:01:39;;;;;;;;;15.75;11.00;;;;;7.72;72.94;102560.50;5076052;28;45849;-77
2022/01/20 11:04:05;;;;;;;;;11.50;9.00;;;;;7.74;72.76;102541.28;5075426;28;45901;-78
2022/01/20 11:06:33;;;;;;;;;18.00;13.25;;;;;7.74;72.68;102541.28;5076439;28;46018;-79
2022/01/20 11:08:58;;;;;;;;;17.00;11.00;;;;;7.79;72.68;102539.41;5085402;28;46088;-82
2022/01/20 11:11:24;;;;;;;;;12.75;11.00;;;;;7.78;72.70;102545.50;5086272;28;45755;-77
2022/01/20 11:13:50;;;;;;;;;18.00;11.00;;;;;7.82;72.57;102556.72;5076351;28;45732;-82
2022/01/20 11:16:17;;;;;;;;;14.50;12.75;;;;;7.80;72.62;102550.69;5075519;28;46456;-78
2022/01/20 11:18:42;;;;;;;;;12.50;10.50;;;;;7.80;72.41;102550.69;5075320;28;46101;-76
2022/01/20 11:21:08;;;;;;;;;12.50;10.25;;;;;7.80;72.60;102550.69;5075537;28;45527;-78
2022/01/20 11:23:42;;;;;;;;;23.00;14.25;;;;;7.77;72.32;102546.44;5075183;28;45564;-79
2022/01/20 11:26:08;;;;;;;;;14.25;12.25;;;;;7.77;72.25;102550.78;5075468;28;45779;-80
2022/01/20 11:28:34;;;;;;;;;15.00;12.00;;;;;7.81;72.59;102553.25;5074673;28;46140;-76
2022/01/20 11:31:04;;;;;;;;;12.25;10.50;;;;;7.84;72.41;102549.69;5075934;28;45959;-82
2022/01/20 11:33:32;;;;;;;;;20.00;14.75;;;;;7.86;72.25;102542.69;5076249;28;45629;-78
2022/01/20 11:35:59;;;;;;;;;17.00;11.25;;;;;7.82;72.19;102533.25;5075807;28;46329;-75
2022/01/20 11:38:41;;;;;;;;;12.25;10.00;;;;;7.88;72.12;102533.91;5075532;28;46086;-76
2022/01/20 11:41:06;;;;;;;;;12.25;11.00;;;;;7.92;72.33;102529.47;5075186;28;45521;-76
2022/01/20 11:43:49;;;;;;;;;13.25;10.00;;;;;7.97;72.08;102533.66;5074981;28;45454;-77
2022/01/20 11:46:17;;;;;;;;;12.25;10.25;;;;;8.05;72.19;102541.25;5074751;28;46459;-76
2022/01/20 11:48:59;;;;;;;;;11.50;11.00;;;;;8.09;71.99;102536.81;5074765;28;45542;-75
2022/01/20 11:51:55;;;;;;;;;10.00;9.00;;;;;8.10;71.82;102539.34;5074768;28;45584;-77
2022/01/20 11:54:28;;;;;;;;;14.50;10.25;;;;;8.12;71.93;102548.00;5075483;28;45798;-79
2022/01/20 11:57:17;;;;;;;;;14.50;12.00;;;;;8.15;71.45;102541.84;5076298;28;45589;-75
2022/01/20 11:59:46;;;;;;;;;13.00;10.50;;;;;8.20;71.43;102535.59;5077404;28;46332;-77
2022/01/20 12:02:28;;;;;;;;;14.75;13.50;;;;;8.21;71.52;102534.66;5076936;28;45985;-79
2022/01/20 12:04:54;;;;;;;;;17.00;15.00;;;;;8.29;71.28;102547.50;5077652;28;45470;-77
2022/01/20 12:07:25;;;;;;;;;13.25;12.00;;;;;8.24;71.54;102529.38;5060052;28;45573;-80
2022/01/20 12:09:50;;;;;;;;;13.50;11.75;;;;;8.34;71.46;102548.25;5058781;28;45989;-77
2022/01/20 12:12:25;;;;;;;;;6.50;6.50;;;;;8.36;71.33;102546.47;5055481;28;45555;-79
2022/01/20 12:14:51;;;;;;;;;6.00;3.50;;;;;8.33;71.27;102529.09;5074902;28;45062;-80
2022/01/20 12:17:17;;;;;;;;;6.00;5.00;;;;;8.36;70.99;102539.47;5069591;28;45570;-82
2022/01/20 12:19:52;;;;;;;;;2.50;2.50;;;;;8.35;70.60;102542.13;5072845;28;45285;-84
2022/01/20 12:22:18;;;;;;;;;6.75;5.75;;;;;8.34;70.27;102543.88;5072966;28;45534;-84
2022/01/20 12:24:51;;;;;;;;;6.00;3.50;;;;;8.27;70.42;102541.47;5074003;28;45706;-82
2022/01/20 12:27:18;;;;;;;;;5.00;3.50;;;;;8.34;70.37;102537.81;5068045;28;45486;-81
2022/01/20 12:29:43;;;;;;;;;5.75;3.00;;;;;8.40;69.92;102554.16;5062528;28;46093;-87
2022/01/20 12:32:17;;;;;;;;;3.00;3.00;;;;;8.42;70.05;102541.03;5071029;28;45094;-82
2022/01/20 12:34:43;;;;;;;;;4.00;4.00;;;;;8.44;69.66;102547.06;5072031;28;45127;-84
2022/01/20 12:37:09;;;;;;;;;2.75;2.00;;;;;8.45;69.64;102543.56;5069887;28;46916;-85
2022/01/20 12:39:38;;;;;;;;;3.00;3.00;;;;;8.49;69.69;102544.28;5064719;28;45578;-78
2022/01/20 12:42:09;;;;;;;;;3.00;3.00;;;;;8.49;69.14;102541.69;5058534;28;45867;-80
2022/01/20 12:44:40;;;;;;;;;3.00;2.25;;;;;8.42;69.55;102528.81;5058244;28;45961;-83
2022/01/20 12:47:05;;;;;;;;;3.00;3.00;;;;;8.49;68.91;102539.06;5057816;28;46491;-79
2022/01/20 12:49:30;;;;;;;;;3.00;3.00;;;;;8.53;68.68;102525.03;5058676;28;45566;-81
2022/01/20 12:51:57;;;;;;;;;6.75;2.50;;;;;8.55;68.63;102525.81;5058149;28;45610;-79
2022/01/20 12:54:32;;;;;;;;;2.00;2.00;;;;;8.55;68.43;102544.09;5057872;28;45811;-81
2022/01/20 12:57:02;;;;;;;;;4.00;2.75;;;;;8.47;68.31;102523.47;5057414;28;46340;-79
2022/01/20 12:59:37;;;;;;;;;3.00;2.00;;;;;8.56;68.30;102554.53;5057750;28;46139;-78
2022/01/20 13:02:11;;;;;;;;;5.50;2.00;;;;;8.56;67.84;102543.22;5056932;28;45808;-81
2022/01/20 13:04:38;;;;;;;;;4.50;3.00;;;;;8.54;68.24;102543.25;5057763;28;45627;-80
2022/01/20 13:07:05;;;;;;;;;5.00;3.50;;;;;8.55;67.98;102539.75;5071126;28;46475;-81
2022/01/20 13:09:44;;;;;;;;;4.50;3.00;;;;;8.55;68.01;102536.28;5077743;28;45443;-79
2022/01/20 13:12:12;;;;;;;;;2.25;2.00;;;;;8.59;68.06;102543.09;5077845;28;45948;-83
2022/01/20 13:14:45;;;;;;;;;3.00;2.00;;;;;8.58;67.55;102534.44;5077914;28;45620;-79
2022/01/20 13:17:31;;;;;;;;;1.25;1.00;;;;;8.59;67.45;102528.28;5081522;28;47657;-80
2022/01/20 13:19:59;;;;;;;;;1.00;1.00;;;;;8.60;67.22;102542.19;5088226;28;46202;-84
2022/01/20 13:22:30;;;;;;;;;2.25;1.00;;;;;8.57;67.17;102531.88;5087504;28;45257;-84
2022/01/20 13:25:14;;;;;;;;;2.00;2.00;;;;;8.54;66.85;102535.41;5085481;28;45566;-85
2022/01/20 13:27:56;;;;;;;;;2.75;1.25;;;;;8.53;66.90;102530.25;5081807;28;47520;-82
2022/01/20 13:30:30;;;;;;;;;1.50;1.00;;;;;8.51;66.63;102519.00;5078939;28;46030;-79
2022/01/20 13:32:57;;;;;;;;;1.25;1.00;;;;;8.51;66.36;102519.84;5078376;28;45537;-82
2022/01/20 13:35:23;;;;;;;;;3.00;1.75;;;;;8.48;66.02;102509.47;5077817;28;45517;-85